createdAt,value
2022-10-02T00:00:20.181Z,3.70
2022-10-02T00:03:25.359Z,3.80
2022-10-02T00:06:12.237Z,3.50
2022-10-02T00:09:00.042Z,3.90
2022-10-02T00:11:46.316Z,3.40
2022-10-02T00:14:23.407Z,3.50
2022-10-02T00:16:59.823Z,3.70
2022-10-02T00:19:36.146Z,3.60
2022-10-02T00:25:52.246Z,3.90
2022-10-02T00:28:34.562Z,3.70
2022-10-02T00:31:30.965Z,4.10
2022-10-02T00:34:24.073Z,4.80
2022-10-02T00:37:24.923Z,4.10
2022-10-02T00:40:03.780Z,4.10
2022-10-02T00:42:45.552Z,3.70
2022-10-02T00:45:37.615Z,4.00
2022-10-02T00:48:38.973Z,4.00
2022-10-02T00:51:33.258Z,3.80
2022-10-02T00:54:09.679Z,4.00
2022-10-02T00:56:55.732Z,4.10
2022-10-02T00:59:36.850Z,3.90
2022-10-02T01:05:14.263Z,4.30
2022-10-02T01:07:52.708Z,4.50
2022-10-02T01:10:28.980Z,4.60
2022-10-02T01:13:02.583Z,4.40
2022-10-02T01:15:48.819Z,4.30
2022-10-02T01:18:22.788Z,4.20
2022-10-02T01:21:04.620Z,4.10
2022-10-02T01:23:48.241Z,4.00
2022-10-02T01:26:21.989Z,4.00
2022-10-02T01:28:56.110Z,4.70
2022-10-02T01:31:29.239Z,4.40
2022-10-02T01:34:03.657Z,3.90
2022-10-02T01:36:38.103Z,4.00
2022-10-02T01:39:12.292Z,3.90
2022-10-02T01:41:47.211Z,4.20
2022-10-02T01:44:22.760Z,4.20
2022-10-02T01:47:18.193Z,4.00
2022-10-02T01:50:28.467Z,3.90
2022-10-02T01:53:23.324Z,4.10
2022-10-02T01:56:01.944Z,4.50
2022-10-02T01:58:56.004Z,4.50
2022-10-02T02:01:28.845Z,4.60
2022-10-02T02:04:23.676Z,4.40
2022-10-02T02:07:02.453Z,4.80
2022-10-02T02:09:47.568Z,4.80
2022-10-02T02:12:41.880Z,4.60
2022-10-02T02:15:32.296Z,4.50
2022-10-02T02:18:20.933Z,4.30
2022-10-02T02:20:58.167Z,3.90
2022-10-02T02:23:38.474Z,4.20
2022-10-02T02:26:14.465Z,4.80
2022-10-02T02:28:57.180Z,4.30
2022-10-02T02:31:39.945Z,4.10
2022-10-02T02:34:19.257Z,4.40
2022-10-02T02:37:00.675Z,4.60
2022-10-02T02:40:18.083Z,4.70
2022-10-02T02:43:10.155Z,4.50
2022-10-02T02:45:54.166Z,4.60
2022-10-02T02:49:02.436Z,3.90
2022-10-02T02:51:41.838Z,4.20
2022-10-02T02:54:29.567Z,4.40
2022-10-02T02:57:06.745Z,4.70
2022-10-02T02:59:44.049Z,4.10
2022-10-02T03:02:17.658Z,4.20
2022-10-02T03:04:51.862Z,4.30
2022-10-02T03:07:32.535Z,4.20
2022-10-02T03:10:18.197Z,4.00
2022-10-02T03:13:29.278Z,4.40
2022-10-02T03:16:14.437Z,4.30
2022-10-02T03:19:04.115Z,4.30
2022-10-02T03:22:06.997Z,4.40
2022-10-02T03:24:54.741Z,4.90
2022-10-02T03:27:35.250Z,4.80
2022-10-02T03:30:14.429Z,4.70
2022-10-02T03:32:52.269Z,4.70
2022-10-02T03:35:27.502Z,4.90
2022-10-02T03:38:07.357Z,5.20
2022-10-02T03:40:41.015Z,4.90
2022-10-02T03:43:33.436Z,4.90
2022-10-02T03:46:07.423Z,4.80
2022-10-02T03:48:41.383Z,5.10
2022-10-02T03:51:15.953Z,5.50
2022-10-02T03:53:49.617Z,5.50
2022-10-02T03:56:46.889Z,5.30
2022-10-02T03:59:40.812Z,5.30
2022-10-02T04:02:42.736Z,5.40
2022-10-02T04:06:00.200Z,5.90
2022-10-02T04:08:49.005Z,5.40
2022-10-02T04:12:01.480Z,5.20
2022-10-02T04:14:48.225Z,5.00
2022-10-02T04:17:34.368Z,5.20
2022-10-02T04:20:22.696Z,5.40
2022-10-02T04:23:05.456Z,4.50
2022-10-02T04:25:51.751Z,4.70
2022-10-02T04:28:32.951Z,4.20
2022-10-02T04:31:11.097Z,4.20
2022-10-02T04:33:45.672Z,4.60
2022-10-02T04:36:52.329Z,4.50
2022-10-02T04:39:52.212Z,4.50
2022-10-02T04:42:36.416Z,4.80
2022-10-02T04:45:41.412Z,4.50
2022-10-02T04:48:54.770Z,4.60
2022-10-02T04:51:50.297Z,5.00
2022-10-02T04:54:51.368Z,4.60
2022-10-02T04:57:44.893Z,4.90
2022-10-02T05:00:23.478Z,4.40
2022-10-02T05:03:10.542Z,4.70
2022-10-02T05:06:00.852Z,4.70
2022-10-02T05:08:46.229Z,4.40
2022-10-02T05:11:51.291Z,4.80
2022-10-02T05:14:43.479Z,5.10
2022-10-02T05:17:38.089Z,5.00
2022-10-02T05:20:44.682Z,4.50
2022-10-02T05:23:43.017Z,5.00
2022-10-02T05:26:52.060Z,3.90
2022-10-02T05:29:42.878Z,3.80
2022-10-02T05:32:33.758Z,2.40
2022-10-02T05:35:34.713Z,2.10
2022-10-02T05:38:25.015Z,1.60
2022-10-02T05:41:11.635Z,1.60
2022-10-02T05:44:06.525Z,1.60
2022-10-02T05:46:54.741Z,2.20
2022-10-02T05:49:46.303Z,2.10
2022-10-02T05:52:32.574Z,2.40
2022-10-02T05:55:36.967Z,2.40
2022-10-02T05:58:25.592Z,2.30
2022-10-02T06:01:18.393Z,2.30
2022-10-02T06:03:53.322Z,2.00
2022-10-02T06:06:54.884Z,2.00
2022-10-02T06:09:33.704Z,1.70
2022-10-02T06:12:34.857Z,2.00
2022-10-02T06:15:27.177Z,2.00
2022-10-02T06:20:48.871Z,2.00
2022-10-02T06:23:25.806Z,1.70
2022-10-02T06:26:01.801Z,2.10
2022-10-02T06:28:55.013Z,2.10
2022-10-02T06:31:49.253Z,2.50
2022-10-02T06:34:23.045Z,2.30
2022-10-02T06:37:23.223Z,2.00
2022-10-02T06:40:01.944Z,2.00
2022-10-02T06:42:54.650Z,1.80
2022-10-02T06:45:27.678Z,2.30
2022-10-02T06:48:47.020Z,2.70
2022-10-02T06:51:29.169Z,2.70
2022-10-02T06:54:17.750Z,1.90
2022-10-02T06:57:12.260Z,2.30
2022-10-02T06:59:52.120Z,2.10
2022-10-02T07:02:30.511Z,2.50
2022-10-02T07:05:33.097Z,2.50
2022-10-02T07:08:14.754Z,2.60
2022-10-02T07:11:11.567Z,3.10
2022-10-02T07:14:10.393Z,2.70
2022-10-02T07:16:44.045Z,2.00
2022-10-02T07:19:46.041Z,2.70
2022-10-02T07:22:44.860Z,2.20
2022-10-02T07:25:35.193Z,2.50
2022-10-02T07:28:28.434Z,2.00
2022-10-02T07:31:30.189Z,2.00
2022-10-02T07:34:35.983Z,2.10
2022-10-02T07:37:21.551Z,2.30
2022-10-02T07:40:11.808Z,1.80
2022-10-02T07:42:51.385Z,1.80
2022-10-02T07:45:50.711Z,2.00
2022-10-02T07:48:33.167Z,1.80
2022-10-02T07:51:34.082Z,1.60
2022-10-02T07:54:33.370Z,1.90
2022-10-02T07:57:16.134Z,1.90
2022-10-02T08:00:04.588Z,1.70
2022-10-02T08:03:05.009Z,1.70
2022-10-02T08:05:50.771Z,2.00
2022-10-02T08:08:23.641Z,1.60
2022-10-02T08:11:06.368Z,2.00
2022-10-02T08:13:57.910Z,1.90
2022-10-02T08:19:44.505Z,1.90
2022-10-02T08:22:28.847Z,1.70
2022-10-02T08:25:26.469Z,1.70
2022-10-02T08:28:44.041Z,1.50
2022-10-02T08:31:18.178Z,1.60
2022-10-02T08:33:52.429Z,1.40
2022-10-02T08:36:44.369Z,1.40
2022-10-02T08:39:23.154Z,1.20
2022-10-02T08:42:15.985Z,1.20
2022-10-02T08:45:20.143Z,1.10
2022-10-02T08:48:13.335Z,0.90
2022-10-02T08:51:21.955Z,1.30
2022-10-02T08:54:16.245Z,1.10
2022-10-02T08:56:54.107Z,1.20
2022-10-02T09:00:18.030Z,1.00
2022-10-02T09:03:09.903Z,1.00
2022-10-02T09:06:10.159Z,1.30
2022-10-02T09:09:00.467Z,1.30
2022-10-02T09:12:21.080Z,1.50
2022-10-02T09:15:01.001Z,1.20
2022-10-02T09:17:51.623Z,1.50
2022-10-02T09:20:44.856Z,1.40
2022-10-02T09:23:53.671Z,1.00
2022-10-02T09:27:01.130Z,1.50
2022-10-02T09:29:48.831Z,1.40
2022-10-02T09:32:58.599Z,1.40
2022-10-02T09:36:36.362Z,1.20
2022-10-02T09:39:31.414Z,1.40
2022-10-02T09:42:16.075Z,1.50
2022-10-02T09:45:08.111Z,1.40
2022-10-02T09:48:09.129Z,1.40
2022-10-02T09:50:58.852Z,1.50
2022-10-02T09:53:59.803Z,1.50
2022-10-02T09:57:01.754Z,1.00
2022-10-02T09:59:53.180Z,1.20
2022-10-02T10:02:42.537Z,1.00
2022-10-02T10:05:23.373Z,1.30
2022-10-02T10:07:56.583Z,1.00
2022-10-02T10:11:01.196Z,1.00
2022-10-02T10:13:56.749Z,1.20
2022-10-02T10:16:51.368Z,1.20
2022-10-02T10:19:45.868Z,1.50
2022-10-02T10:22:52.483Z,1.40
2022-10-02T10:25:52.186Z,0.90
2022-10-02T10:28:45.935Z,1.40
2022-10-02T10:32:04.260Z,1.60
2022-10-02T10:34:48.823Z,1.50
2022-10-02T10:38:07.682Z,1.30
2022-10-02T10:41:15.114Z,1.30
2022-10-02T10:44:24.712Z,1.40
2022-10-02T10:47:32.658Z,1.30
2022-10-02T10:50:37.011Z,1.30
2022-10-02T10:53:10.892Z,1.40
2022-10-02T10:56:13.390Z,1.50
2022-10-02T11:02:22.116Z,1.20
2022-10-02T11:05:23.983Z,1.30
2022-10-02T11:08:31.424Z,1.10
2022-10-02T11:11:20.650Z,1.40
2022-10-02T11:14:27.556Z,1.20
2022-10-02T11:17:33.778Z,1.00
2022-10-02T11:20:10.247Z,0.80
2022-10-02T11:23:10.872Z,1.10
2022-10-02T11:25:53.120Z,0.80
2022-10-02T11:28:43.847Z,0.80
2022-10-02T11:31:30.604Z,0.80
2022-10-02T11:34:55.322Z,1.00
2022-10-02T11:37:46.807Z,0.90
2022-10-02T11:40:45.974Z,0.60
2022-10-02T11:43:31.307Z,1.20
2022-10-02T11:46:26.211Z,0.80
2022-10-02T11:49:29.596Z,0.60
2022-10-02T11:52:24.831Z,1.30
2022-10-02T11:55:30.969Z,1.10
2022-10-02T11:58:55.980Z,1.10
2022-10-02T12:01:47.995Z,0.90
2022-10-02T12:04:34.777Z,1.20
2022-10-02T12:07:43.071Z,0.80
2022-10-02T12:10:49.491Z,1.00
2022-10-02T12:13:30.838Z,0.80
2022-10-02T12:16:42.851Z,0.80
2022-10-02T12:20:02.994Z,1.00
2022-10-02T12:23:19.382Z,0.80
2022-10-02T12:26:41.627Z,0.90
2022-10-02T12:29:48.002Z,0.80
2022-10-02T12:32:53.757Z,0.80
2022-10-02T12:35:38.668Z,0.70
2022-10-02T12:38:17.325Z,0.90
2022-10-02T12:41:03.775Z,1.00
2022-10-02T12:44:06.292Z,0.90
2022-10-02T12:47:11.629Z,0.60
2022-10-02T12:50:05.461Z,0.80
2022-10-02T12:53:07.907Z,1.10
2022-10-02T12:55:59.051Z,0.80
2022-10-02T12:59:01.982Z,0.80
2022-10-02T13:02:08.045Z,1.00
2022-10-02T13:05:22.493Z,1.30
2022-10-02T13:08:14.812Z,1.30
2022-10-02T13:11:06.875Z,1.30
2022-10-02T13:13:42.740Z,1.30
2022-10-02T13:16:43.140Z,0.90
2022-10-02T13:19:34.892Z,1.20
2022-10-02T13:25:20.956Z,1.10
2022-10-02T13:30:59.046Z,1.30
2022-10-02T13:34:00.809Z,0.90
2022-10-02T13:36:58.440Z,1.00
2022-10-02T13:39:41.602Z,1.00
2022-10-02T13:42:29.548Z,1.00
2022-10-02T13:45:17.605Z,1.20
2022-10-02T13:48:15.263Z,0.80
2022-10-02T13:50:50.672Z,1.10
2022-10-02T13:53:43.226Z,1.20
2022-10-02T13:56:53.009Z,1.10
2022-10-02T13:59:53.663Z,1.20
2022-10-02T14:03:10.879Z,1.10
2022-10-02T14:05:57.637Z,1.10
2022-10-02T14:08:55.649Z,1.00
2022-10-02T14:11:47.538Z,0.90
2022-10-02T14:14:39.449Z,1.30
2022-10-02T14:17:51.473Z,0.90
2022-10-02T14:20:51.156Z,0.90
2022-10-02T14:23:45.291Z,1.00
2022-10-02T14:26:27.007Z,1.00
2022-10-02T14:29:10.842Z,0.90
2022-10-02T14:32:01.238Z,0.90
2022-10-02T14:34:58.396Z,0.80
2022-10-02T14:38:05.725Z,1.10
2022-10-02T14:40:52.709Z,1.00
2022-10-02T14:43:50.906Z,0.90
2022-10-02T14:47:00.362Z,0.70
2022-10-02T14:50:02.342Z,0.80
2022-10-02T14:52:49.470Z,0.80
2022-10-02T14:55:45.748Z,0.80
2022-10-02T14:58:33.288Z,0.80
2022-10-02T15:01:19.617Z,0.70
2022-10-02T15:04:26.000Z,1.10
2022-10-02T15:07:10.702Z,0.80
2022-10-02T15:10:04.694Z,0.90
2022-10-02T15:12:44.317Z,1.10
2022-10-02T15:15:48.178Z,1.00
2022-10-02T15:18:56.658Z,0.80
2022-10-02T15:21:52.338Z,1.10
2022-10-02T15:24:37.456Z,1.20
2022-10-02T15:27:29.542Z,0.90
2022-10-02T15:30:25.625Z,1.00
2022-10-02T15:33:15.976Z,1.10
2022-10-02T15:36:29.475Z,1.20
2022-10-02T15:39:29.064Z,1.10
2022-10-02T15:42:13.002Z,1.30
2022-10-02T15:45:06.817Z,1.00
2022-10-02T15:48:01.260Z,0.70
2022-10-02T15:50:36.623Z,1.20
2022-10-02T15:53:33.842Z,1.40
2022-10-02T15:56:37.078Z,1.40
2022-10-02T15:59:36.248Z,1.40
2022-10-02T16:02:25.063Z,1.30
2022-10-02T16:05:17.388Z,1.20
2022-10-02T16:08:27.807Z,1.00
2022-10-02T16:11:40.753Z,1.10
2022-10-02T16:14:25.857Z,1.20
2022-10-02T16:17:24.924Z,1.30
2022-10-02T16:20:26.135Z,1.20
2022-10-02T16:23:15.790Z,1.10
2022-10-02T16:26:06.450Z,1.40
2022-10-02T16:28:56.303Z,1.10
2022-10-02T16:32:05.026Z,1.10
2022-10-02T16:35:08.664Z,1.10
2022-10-02T16:37:49.512Z,1.30
2022-10-02T16:40:41.185Z,1.40
2022-10-02T16:43:47.201Z,1.20
2022-10-02T16:46:46.514Z,1.20
2022-10-02T16:49:35.547Z,1.40
2022-10-02T16:52:25.757Z,1.50
2022-10-02T16:55:27.529Z,1.30
2022-10-02T16:58:27.284Z,1.70
2022-10-02T17:01:24.337Z,1.40
2022-10-02T17:04:28.582Z,1.40
2022-10-02T17:07:26.708Z,1.30
2022-10-02T17:10:19.263Z,1.50
2022-10-02T17:13:03.500Z,1.40
2022-10-02T17:15:54.404Z,1.40
2022-10-02T17:18:59.598Z,1.30
2022-10-02T17:21:46.370Z,1.60
2022-10-02T17:24:46.569Z,1.50
2022-10-02T17:27:37.275Z,1.50
2022-10-02T17:30:31.507Z,1.60
2022-10-02T17:33:08.101Z,1.60
2022-10-02T17:36:14.410Z,1.50
2022-10-02T17:39:06.362Z,1.80
2022-10-02T17:41:50.385Z,1.70
2022-10-02T17:44:44.434Z,2.10
2022-10-02T17:47:31.541Z,2.20
2022-10-02T17:50:21.809Z,2.10
2022-10-02T17:53:22.840Z,2.20
2022-10-02T17:56:36.870Z,2.00
2022-10-02T18:00:04.121Z,2.10
2022-10-02T18:02:45.714Z,2.00
2022-10-02T18:05:32.508Z,2.10
2022-10-02T18:08:49.132Z,2.10
2022-10-02T18:11:41.390Z,2.80
2022-10-02T18:14:36.389Z,2.50
2022-10-02T18:17:38.894Z,2.50
2022-10-02T18:20:39.546Z,3.10
2022-10-02T18:23:34.706Z,3.00
2022-10-02T18:26:32.372Z,2.10
2022-10-02T18:29:36.439Z,2.50
2022-10-02T18:32:45.488Z,1.50
2022-10-02T18:35:46.223Z,2.00
2022-10-02T18:38:48.441Z,2.10
2022-10-02T18:41:43.065Z,2.10
2022-10-02T18:44:36.066Z,2.00
2022-10-02T18:47:41.777Z,1.80
2022-10-02T18:50:35.646Z,1.80
2022-10-02T18:53:37.668Z,1.70
2022-10-02T18:56:12.981Z,1.80
2022-10-02T18:58:53.863Z,1.60
2022-10-02T19:02:04.464Z,1.60
2022-10-02T19:05:05.938Z,1.90
2022-10-02T19:07:58.155Z,1.50
2022-10-02T19:13:30.128Z,1.80
2022-10-02T19:16:25.747Z,1.60
2022-10-02T19:19:20.890Z,1.80
2022-10-02T19:21:59.133Z,1.70
2022-10-02T19:24:40.222Z,1.80
2022-10-02T19:27:24.697Z,2.00
2022-10-02T19:30:03.865Z,1.80
2022-10-02T19:32:42.329Z,1.70
2022-10-02T19:35:21.287Z,1.50
2022-10-02T19:38:01.230Z,1.50
2022-10-02T19:40:37.822Z,2.50
2022-10-02T19:43:31.587Z,3.90
2022-10-02T19:46:08.915Z,6.30
2022-10-02T19:48:42.971Z,4.80
2022-10-02T19:51:43.511Z,2.30
2022-10-02T19:54:25.107Z,2.20
2022-10-02T19:57:06.572Z,2.50
2022-10-02T19:59:50.743Z,2.10
2022-10-02T20:02:37.905Z,1.80
2022-10-02T20:05:17.368Z,2.70
2022-10-02T20:07:55.744Z,3.10
2022-10-02T20:10:39.889Z,2.60
2022-10-02T20:13:22.206Z,1.90
2022-10-02T20:16:21.581Z,1.90
2022-10-02T20:18:54.905Z,1.90
2022-10-02T20:21:50.392Z,2.10
2022-10-02T20:24:54.463Z,2.10
2022-10-02T20:27:56.413Z,1.90
2022-10-02T20:30:36.873Z,1.50
2022-10-02T20:33:26.726Z,1.70
2022-10-02T20:36:39.583Z,1.60
2022-10-02T20:39:18.837Z,1.70
2022-10-02T20:42:23.321Z,1.50
2022-10-02T20:44:56.201Z,1.70
2022-10-02T20:47:34.279Z,1.90
2022-10-02T20:50:29.514Z,1.80
2022-10-02T20:53:33.976Z,1.90
2022-10-02T20:56:26.564Z,1.70
2022-10-02T20:59:09.732Z,1.90
2022-10-02T21:01:47.459Z,1.60
2022-10-02T21:04:55.309Z,2.20
2022-10-02T21:07:51.472Z,1.70
2022-10-02T21:10:41.318Z,1.80
2022-10-02T21:13:33.499Z,1.70
2022-10-02T21:16:35.773Z,2.10
2022-10-02T21:22:33.009Z,1.80
2022-10-02T21:25:21.728Z,2.20
2022-10-02T21:28:13.809Z,2.00
2022-10-02T21:31:24.163Z,1.80
2022-10-02T21:34:31.098Z,1.70
2022-10-02T21:37:16.366Z,1.80
2022-10-02T21:40:15.151Z,2.10
2022-10-02T21:43:09.131Z,1.80
2022-10-02T21:45:54.036Z,1.90
2022-10-02T21:49:05.412Z,2.00
2022-10-02T21:51:52.443Z,1.70
2022-10-02T21:55:14.003Z,1.90
2022-10-02T21:58:04.752Z,1.90
2022-10-02T22:01:08.624Z,1.60
2022-10-02T22:04:10.707Z,1.60
2022-10-02T22:07:03.241Z,2.00
2022-10-02T22:12:38.969Z,1.90
2022-10-02T22:15:33.226Z,1.80
2022-10-02T22:18:57.279Z,1.70
2022-10-02T22:21:53.367Z,2.10
2022-10-02T22:24:34.932Z,2.20
2022-10-02T22:27:26.535Z,1.90
2022-10-02T22:30:00.174Z,1.60
2022-10-02T22:33:02.873Z,1.80
2022-10-02T22:35:44.273Z,1.80
2022-10-02T22:38:34.888Z,1.80
2022-10-02T22:41:19.091Z,1.60
2022-10-02T22:44:11.010Z,1.70
2022-10-02T22:47:07.833Z,1.70
2022-10-02T22:49:47.988Z,1.60
2022-10-02T22:52:47.960Z,1.80
2022-10-02T22:55:37.628Z,1.90
2022-10-02T22:58:17.246Z,1.80
2022-10-02T23:00:58.560Z,1.60
2022-10-02T23:03:39.647Z,1.90
2022-10-02T23:06:30.511Z,1.90
2022-10-02T23:09:09.881Z,1.90
2022-10-02T23:12:12.857Z,1.60
2022-10-02T23:15:02.119Z,1.80
2022-10-02T23:17:47.601Z,1.70
2022-10-02T23:20:31.142Z,1.80
2022-10-02T23:23:36.313Z,2.10
2022-10-02T23:26:34.750Z,1.80
2022-10-02T23:29:45.911Z,2.10
2022-10-02T23:32:24.590Z,1.70
2022-10-02T23:35:18.290Z,2.00
2022-10-02T23:38:20.375Z,1.80
2022-10-02T23:41:18.242Z,1.80
2022-10-02T23:44:12.946Z,1.70
2022-10-02T23:46:56.358Z,1.70
2022-10-02T23:49:47.067Z,2.00
2022-10-02T23:52:32.813Z,1.70
2022-10-02T23:55:40.471Z,1.50
2022-10-02T23:58:28.841Z,1.80
